createdAt,value
2019-04-04T00:00:48.320Z,2.40
2019-04-04T00:03:21.067Z,3.08
2019-04-04T00:05:52.925Z,2.70
2019-04-04T00:08:24.421Z,2.95
2019-04-04T00:10:55.884Z,3.33
2019-04-04T00:13:27.243Z,2.77
2019-04-04T00:15:58.717Z,2.72
2019-04-04T00:18:30.195Z,3.42
2019-04-04T00:21:02.807Z,2.72
2019-04-04T00:23:37.654Z,2.95
2019-04-04T00:26:08.888Z,3.08
2019-04-04T00:28:41.673Z,2.77
2019-04-04T00:31:13.232Z,2.92
2019-04-04T00:33:44.671Z,3.05
2019-04-04T00:36:16.234Z,3.50
2019-04-04T00:38:47.880Z,2.85
2019-04-04T00:41:19.402Z,3.50
2019-04-04T00:43:51.875Z,2.70
2019-04-04T00:46:24.001Z,3.27
2019-04-04T00:48:55.256Z,3.65
2019-04-04T00:51:26.879Z,3.30
2019-04-04T00:53:58.272Z,3.15
2019-04-04T00:56:29.735Z,3.17
2019-04-04T00:59:02.313Z,3.22
2019-04-04T01:01:33.886Z,3.62
2019-04-04T01:04:05.397Z,3.37
2019-04-04T01:06:36.910Z,3.33
2019-04-04T01:09:13.185Z,4.30
2019-04-04T01:11:41.850Z,3.85
2019-04-04T01:14:13.706Z,4.40
2019-04-04T01:16:45.292Z,3.83
2019-04-04T01:19:16.891Z,4.03
2019-04-04T01:21:48.512Z,3.62
2019-04-04T01:24:20.178Z,3.95
2019-04-04T01:26:51.671Z,3.45
2019-04-04T01:29:23.428Z,4.12
2019-04-04T01:31:54.960Z,4.50
2019-04-04T01:34:26.650Z,3.90
2019-04-04T01:36:58.252Z,4.30
2019-04-04T01:39:31.336Z,4.55
2019-04-04T01:42:03.199Z,4.30
2019-04-04T01:44:36.341Z,4.00
2019-04-04T01:47:08.051Z,4.05
2019-04-04T01:49:39.612Z,4.75
2019-04-04T01:52:11.280Z,4.22
2019-04-04T01:54:42.870Z,4.70
2019-04-04T01:57:14.323Z,4.35
2019-04-04T01:59:45.617Z,5.10
2019-04-04T02:02:18.422Z,4.87
2019-04-04T02:04:49.763Z,4.17
2019-04-04T02:07:21.594Z,4.35
2019-04-04T02:09:52.929Z,4.35
2019-04-04T02:12:24.333Z,4.97
2019-04-04T02:14:55.919Z,4.55
2019-04-04T02:17:27.532Z,4.87
2019-04-04T02:19:59.075Z,5.03
2019-04-04T02:22:31.030Z,5.05
2019-04-04T02:25:03.839Z,6.05
2019-04-04T02:27:37.601Z,4.17
2019-04-04T02:30:08.984Z,4.97
2019-04-04T02:32:40.573Z,4.80
2019-04-04T02:35:12.017Z,4.60
2019-04-04T02:37:43.367Z,4.62
2019-04-04T02:40:15.107Z,4.78
2019-04-04T02:42:46.363Z,4.95
2019-04-04T02:45:17.987Z,4.42
2019-04-04T02:47:51.149Z,4.65
2019-04-04T02:50:23.108Z,4.95
2019-04-04T02:52:54.904Z,4.95
2019-04-04T02:55:29.921Z,4.80
2019-04-04T02:57:59.725Z,5.42
2019-04-04T03:00:31.339Z,4.60
2019-04-04T03:03:02.810Z,5.45
2019-04-04T03:05:34.328Z,5.17
2019-04-04T03:08:07.018Z,5.08
2019-04-04T03:10:38.593Z,5.12
2019-04-04T03:13:09.902Z,5.72
2019-04-04T03:15:44.581Z,5.08
2019-04-04T03:18:15.002Z,5.40
2019-04-04T03:20:50.308Z,4.95
2019-04-04T03:23:19.838Z,4.90
2019-04-04T03:25:51.408Z,5.05
2019-04-04T03:28:22.764Z,5.30
2019-04-04T03:31:01.765Z,5.47
2019-04-04T03:33:31.544Z,5.60
2019-04-04T03:36:01.314Z,6.37
2019-04-04T03:38:32.862Z,5.65
2019-04-04T03:41:04.476Z,6.00
2019-04-04T03:43:35.941Z,5.92
2019-04-04T03:46:07.372Z,6.28
2019-04-04T03:48:38.874Z,5.92
2019-04-04T03:51:10.169Z,5.90
2019-04-04T03:53:49.257Z,6.92
2019-04-04T03:56:20.853Z,6.15
2019-04-04T03:58:52.298Z,6.05
2019-04-04T04:01:23.741Z,5.58
2019-04-04T04:03:55.686Z,6.60
2019-04-04T04:06:27.065Z,6.47
2019-04-04T04:08:58.718Z,5.97
2019-04-04T04:11:30.129Z,6.65
2019-04-04T04:14:01.779Z,7.22
2019-04-04T04:16:36.016Z,6.72
2019-04-04T04:19:06.465Z,6.45
2019-04-04T04:21:38.019Z,6.67
2019-04-04T04:24:09.404Z,7.25
2019-04-04T04:26:41.909Z,7.55
2019-04-04T04:29:13.758Z,6.67
2019-04-04T04:31:48.386Z,6.37
2019-04-04T04:34:16.806Z,6.60
2019-04-04T04:36:48.568Z,6.85
2019-04-04T04:39:18.679Z,6.22
2019-04-04T04:41:53.193Z,7.10
2019-04-04T04:44:23.107Z,6.75
2019-04-04T04:46:54.585Z,6.45
2019-04-04T04:49:24.703Z,6.25
2019-04-04T04:51:57.315Z,6.90
2019-04-04T04:54:28.767Z,6.65
2019-04-04T04:57:03.387Z,6.50
2019-04-04T04:59:33.725Z,6.20
2019-04-04T05:02:05.312Z,5.90
2019-04-04T05:04:36.813Z,6.28
2019-04-04T05:07:08.336Z,6.75
2019-04-04T05:09:40.887Z,6.92
2019-04-04T05:12:12.165Z,6.72
2019-04-04T05:14:43.647Z,7.05
2019-04-04T05:17:15.136Z,6.60
2019-04-04T05:19:48.172Z,6.47
2019-04-04T05:22:19.867Z,7.90
2019-04-04T05:25:06.874Z,6.58
2019-04-04T05:27:24.727Z,7.15
2019-04-04T05:29:56.227Z,6.20
2019-04-04T05:32:27.802Z,7.17
2019-04-04T05:35:01.267Z,7.22
2019-04-04T05:37:32.703Z,7.08
2019-04-04T05:40:04.471Z,8.08
2019-04-04T05:42:35.993Z,7.58
2019-04-04T05:45:08.453Z,8.08
2019-04-04T05:47:39.824Z,7.92
2019-04-04T05:50:11.951Z,7.20
2019-04-04T05:52:43.554Z,6.87
2019-04-04T05:55:15.017Z,7.45
2019-04-04T05:57:46.294Z,7.37
2019-04-04T06:00:17.792Z,8.20
2019-04-04T06:02:49.073Z,8.08
2019-04-04T06:05:20.554Z,8.73
2019-04-04T06:07:52.146Z,6.95
2019-04-04T06:10:23.313Z,8.15
2019-04-04T06:12:56.268Z,8.68
2019-04-04T06:15:27.892Z,7.90
2019-04-04T06:17:59.315Z,7.65
2019-04-04T06:20:31.095Z,8.63
2019-04-04T06:23:02.606Z,7.60
2019-04-04T06:25:35.797Z,7.05
2019-04-04T06:28:07.481Z,7.20
2019-04-04T06:30:43.587Z,7.53
2019-04-04T06:33:12.297Z,7.30
2019-04-04T06:35:47.058Z,7.87
2019-04-04T06:38:17.094Z,7.47
2019-04-04T06:40:48.484Z,7.85
2019-04-04T06:43:19.969Z,8.93
2019-04-04T06:45:51.602Z,10.35
2019-04-04T06:48:24.219Z,7.33
2019-04-04T06:50:56.059Z,8.05
2019-04-04T06:53:27.490Z,7.53
2019-04-04T06:56:00.396Z,7.62
2019-04-04T06:58:32.255Z,7.70
2019-04-04T07:01:03.598Z,8.58
2019-04-04T07:03:35.307Z,8.08
2019-04-04T07:06:09.834Z,7.80
2019-04-04T07:08:40.086Z,8.25
2019-04-04T07:11:20.930Z,8.08
2019-04-04T07:13:44.921Z,7.45
2019-04-04T07:16:16.514Z,6.97
2019-04-04T07:18:47.975Z,7.92
2019-04-04T07:21:20.220Z,6.90
2019-04-04T07:23:52.363Z,8.33
2019-04-04T07:26:24.126Z,7.17
2019-04-04T07:28:57.215Z,6.97
2019-04-04T07:31:28.726Z,7.67
2019-04-04T07:34:00.255Z,7.42
2019-04-04T07:36:32.745Z,6.97
2019-04-04T07:39:05.277Z,6.80
2019-04-04T07:41:40.036Z,7.15
2019-04-04T07:44:10.041Z,7.87
2019-04-04T07:46:45.412Z,7.85
2019-04-04T07:49:15.079Z,7.12
2019-04-04T07:51:46.599Z,7.87
2019-04-04T07:54:18.097Z,8.88
2019-04-04T07:56:49.728Z,8.15
2019-04-04T07:59:21.250Z,7.72
2019-04-04T08:01:52.635Z,7.75
2019-04-04T08:04:24.331Z,8.18
2019-04-04T08:06:55.914Z,8.90
2019-04-04T08:09:27.339Z,8.70
2019-04-04T08:11:58.867Z,11.78
2019-04-04T08:14:30.336Z,8.83
2019-04-04T08:17:02.158Z,9.15
2019-04-04T08:19:33.665Z,8.75
2019-04-04T08:22:05.417Z,14.07
2019-04-04T08:24:36.708Z,12.10
2019-04-04T08:27:08.374Z,8.88
2019-04-04T08:29:40.040Z,9.50
2019-04-04T08:32:11.579Z,11.30
2019-04-04T08:34:43.459Z,11.35
2019-04-04T08:37:15.135Z,20.77
2019-04-04T08:39:46.503Z,9.58
2019-04-04T08:42:17.842Z,8.88
2019-04-04T08:44:49.328Z,24.05
2019-04-04T08:47:20.587Z,18.92
2019-04-04T08:49:53.319Z,9.30
2019-04-04T08:52:24.795Z,9.25
2019-04-04T08:54:56.430Z,9.50
2019-04-04T08:57:27.919Z,9.20
2019-04-04T08:59:59.690Z,9.65
2019-04-04T09:02:31.438Z,9.38
2019-04-04T09:05:11.727Z,9.25
2019-04-04T09:07:36.326Z,9.63
2019-04-04T09:10:07.995Z,9.60
2019-04-04T09:12:40.082Z,9.63
2019-04-04T09:15:12.087Z,9.60
2019-04-04T09:17:43.139Z,9.40
2019-04-04T09:20:14.492Z,9.33
2019-04-04T09:22:45.608Z,9.90
2019-04-04T09:25:16.765Z,9.40
2019-04-04T09:27:48.063Z,8.33
2019-04-04T09:30:19.776Z,9.67
2019-04-04T09:32:50.902Z,9.60
2019-04-04T09:35:23.156Z,9.70
2019-04-04T09:37:54.233Z,8.87
2019-04-04T09:40:25.259Z,8.77
2019-04-04T09:42:56.301Z,9.23
2019-04-04T09:45:27.569Z,9.43
2019-04-04T09:47:58.744Z,9.97
2019-04-04T09:50:30.770Z,9.40
2019-04-04T09:53:01.965Z,9.60
2019-04-04T09:55:33.433Z,9.67
2019-04-04T09:58:05.745Z,10.23
2019-04-04T10:00:37.477Z,9.40
2019-04-04T10:03:08.878Z,9.17
2019-04-04T10:05:40.097Z,9.87
2019-04-04T10:08:11.600Z,9.93
2019-04-04T10:10:42.927Z,10.67
2019-04-04T10:13:14.416Z,9.70
2019-04-04T10:15:45.708Z,9.83
2019-04-04T10:18:17.081Z,9.40
2019-04-04T10:20:48.211Z,10.50
2019-04-04T10:23:19.326Z,10.00
2019-04-04T10:25:50.605Z,9.90
2019-04-04T10:28:23.402Z,9.43
2019-04-04T10:30:54.918Z,8.07
2019-04-04T10:33:25.942Z,9.60
2019-04-04T10:35:57.386Z,8.97
2019-04-04T10:38:28.713Z,8.53
2019-04-04T10:40:59.954Z,8.67
2019-04-04T10:43:31.623Z,9.33
2019-04-04T10:46:02.897Z,9.07
2019-04-04T10:48:33.832Z,8.43
2019-04-04T10:51:05.383Z,8.13
2019-04-04T10:53:36.522Z,8.30
2019-04-04T10:56:07.947Z,8.07
2019-04-04T10:58:39.416Z,9.57
2019-04-04T11:01:10.952Z,7.83
2019-04-04T11:03:42.248Z,8.23
2019-04-04T11:06:13.459Z,7.90
2019-04-04T11:08:44.811Z,7.90
2019-04-04T11:11:16.239Z,8.03
2019-04-04T11:13:47.486Z,8.40
2019-04-04T11:16:29.537Z,9.17
2019-04-04T11:18:51.996Z,9.63
2019-04-04T11:21:23.316Z,9.30
2019-04-04T11:23:54.495Z,9.00
2019-04-04T11:26:25.858Z,8.70
2019-04-04T11:28:57.249Z,9.40
2019-04-04T11:31:28.665Z,8.93
2019-04-04T11:34:00.098Z,9.50
2019-04-04T11:36:31.379Z,9.73
2019-04-04T11:39:02.651Z,9.90
2019-04-04T11:41:34.157Z,9.23
2019-04-04T11:44:05.614Z,9.00
2019-04-04T11:46:37.014Z,9.90
2019-04-04T11:49:08.217Z,9.20
2019-04-04T11:51:39.592Z,9.87
2019-04-04T11:54:10.797Z,8.97
2019-04-04T11:56:42.076Z,8.30
2019-04-04T11:59:13.367Z,8.80
2019-04-04T12:01:45.167Z,9.20
2019-04-04T12:04:16.386Z,8.73
2019-04-04T12:06:47.656Z,7.90
2019-04-04T12:09:18.654Z,8.23
2019-04-04T12:11:50.123Z,8.87
2019-04-04T12:14:21.398Z,7.97
2019-04-04T12:16:52.587Z,7.50
2019-04-04T12:19:23.638Z,7.20
2019-04-04T12:21:54.803Z,7.90
2019-04-04T12:24:25.967Z,7.70
2019-04-04T12:26:58.242Z,7.80
2019-04-04T12:29:29.461Z,7.20
2019-04-04T12:32:00.847Z,7.53
2019-04-04T12:34:32.340Z,7.50
2019-04-04T12:37:03.611Z,7.40
2019-04-04T12:39:35.054Z,6.70
2019-04-04T12:42:06.453Z,7.50
2019-04-04T12:44:37.522Z,7.20
2019-04-04T12:47:09.745Z,7.43
2019-04-04T12:49:41.275Z,7.57
2019-04-04T12:52:12.559Z,6.83
2019-04-04T12:54:43.985Z,6.80
2019-04-04T12:57:14.875Z,7.93
2019-04-04T12:59:45.979Z,7.00
2019-04-04T13:02:16.976Z,7.33
2019-04-04T13:04:47.988Z,7.50
2019-04-04T13:07:18.878Z,7.00
2019-04-04T13:09:50.195Z,7.60
2019-04-04T13:12:21.316Z,7.50
2019-04-04T13:14:52.597Z,6.87
2019-04-04T13:17:24.092Z,7.03
2019-04-04T13:19:55.491Z,7.23
2019-04-04T13:22:27.224Z,7.80
2019-04-04T13:24:58.170Z,8.97
2019-04-04T13:27:29.197Z,6.87
2019-04-04T13:30:00.531Z,7.80
2019-04-04T13:32:31.799Z,7.67
2019-04-04T13:35:05.718Z,7.60
2019-04-04T13:37:36.114Z,7.23
2019-04-04T13:40:07.459Z,6.70
2019-04-04T13:42:38.434Z,6.97
2019-04-04T13:45:09.950Z,6.90
2019-04-04T13:47:41.118Z,7.07
2019-04-04T13:50:13.505Z,7.00
2019-04-04T13:52:44.905Z,7.40
2019-04-04T13:55:16.093Z,7.10
2019-04-04T13:57:47.619Z,6.97
2019-04-04T14:00:19.576Z,6.67
2019-04-04T14:02:50.875Z,7.10
2019-04-04T14:05:22.325Z,6.67
2019-04-04T14:07:53.776Z,7.20
2019-04-04T14:10:25.075Z,8.73
2019-04-04T14:12:56.554Z,8.30
2019-04-04T14:15:27.628Z,7.80
2019-04-04T14:17:58.880Z,8.50
2019-04-04T14:20:29.991Z,8.17
2019-04-04T14:23:00.931Z,8.23
2019-04-04T14:25:32.131Z,8.67
2019-04-04T14:28:03.411Z,10.23
2019-04-04T14:30:35.091Z,10.73
2019-04-04T14:33:06.068Z,11.20
2019-04-04T14:35:37.394Z,10.80
2019-04-04T14:38:08.322Z,8.93
2019-04-04T14:40:39.678Z,8.60
2019-04-04T14:43:10.876Z,7.53
2019-04-04T14:45:42.113Z,7.33
2019-04-04T14:48:14.068Z,7.53
2019-04-04T14:50:45.340Z,8.50
2019-04-04T14:53:16.612Z,7.03
2019-04-04T14:55:47.792Z,6.50
2019-04-04T14:58:19.100Z,7.57
2019-04-04T15:00:50.379Z,7.20
2019-04-04T15:03:21.742Z,7.17
2019-04-04T15:05:52.817Z,7.03
2019-04-04T15:08:24.169Z,7.73
2019-04-04T15:10:55.191Z,8.67
2019-04-04T15:13:26.430Z,7.40
2019-04-04T15:16:14.104Z,8.10
2019-04-04T15:18:45.692Z,8.57
2019-04-04T15:21:17.055Z,8.27
2019-04-04T15:23:48.229Z,8.33
2019-04-04T15:26:19.106Z,7.93
2019-04-04T15:28:50.337Z,7.90
2019-04-04T15:31:22.551Z,8.60
2019-04-04T15:33:53.916Z,8.30
2019-04-04T15:36:25.070Z,9.10
2019-04-04T15:38:56.115Z,10.80
2019-04-04T15:41:36.706Z,10.23
2019-04-04T15:44:00.459Z,9.70
2019-04-04T15:46:31.923Z,8.60
2019-04-04T15:49:03.154Z,7.73
2019-04-04T15:51:34.499Z,8.13
2019-04-04T15:54:05.979Z,8.13
2019-04-04T15:56:37.122Z,8.00
2019-04-04T15:59:08.591Z,8.87
2019-04-04T16:01:39.589Z,7.80
2019-04-04T16:04:10.604Z,8.30
2019-04-04T16:06:41.834Z,8.30
2019-04-04T16:09:13.188Z,8.50
2019-04-04T16:11:49.781Z,8.83
2019-04-04T16:14:17.157Z,8.00
2019-04-04T16:16:48.846Z,8.40
2019-04-04T16:19:22.957Z,9.90
2019-04-04T16:21:55.191Z,11.27
2019-04-04T16:24:26.201Z,10.70
2019-04-04T16:26:57.291Z,10.33
2019-04-04T16:29:28.527Z,13.13
2019-04-04T16:31:59.749Z,11.97
2019-04-04T16:34:30.885Z,11.73
2019-04-04T16:37:02.157Z,12.10
2019-04-04T16:39:35.345Z,11.73
2019-04-04T16:42:06.449Z,9.87
2019-04-04T16:44:37.574Z,12.43
2019-04-04T16:47:08.786Z,12.57
2019-04-04T16:49:39.942Z,11.47
2019-04-04T16:52:11.291Z,10.60
2019-04-04T16:54:42.522Z,10.83
2019-04-04T16:57:13.755Z,11.17
2019-04-04T16:59:44.888Z,10.83
2019-04-04T17:02:16.146Z,10.97
2019-04-04T17:04:47.286Z,10.37
2019-04-04T17:07:18.510Z,10.70
2019-04-04T17:09:49.676Z,10.37
2019-04-04T17:12:20.704Z,10.33
2019-04-04T17:14:51.743Z,11.47
2019-04-04T17:17:24.089Z,10.47
2019-04-04T17:19:55.532Z,11.57
2019-04-04T17:22:29.108Z,9.17
2019-04-04T17:24:59.756Z,10.40
2019-04-04T17:27:31.023Z,11.23
2019-04-04T17:30:02.550Z,10.77
2019-04-04T17:32:36.179Z,10.97
2019-04-04T17:35:08.657Z,11.27
2019-04-04T17:37:40.296Z,11.35
2019-04-04T17:40:12.193Z,11.63
2019-04-04T17:42:44.038Z,10.77
2019-04-04T17:45:15.364Z,12.10
2019-04-04T17:47:46.774Z,8.90
2019-04-04T17:50:19.423Z,10.30
2019-04-04T17:52:51.572Z,9.08
2019-04-04T17:55:23.306Z,7.87
2019-04-04T17:57:54.838Z,10.50
2019-04-04T18:00:28.862Z,9.35
2019-04-04T18:03:00.102Z,11.17
2019-04-04T18:05:31.766Z,10.78
2019-04-04T18:08:03.635Z,10.20
2019-04-04T18:10:35.393Z,10.85
2019-04-04T18:13:07.037Z,10.58
2019-04-04T18:15:38.356Z,10.82
2019-04-04T18:18:09.687Z,9.98
2019-04-04T18:20:41.025Z,10.93
2019-04-04T18:23:15.073Z,10.23
2019-04-04T18:25:45.536Z,9.88
2019-04-04T18:28:17.030Z,10.25
2019-04-04T18:30:48.402Z,10.18
2019-04-04T18:33:20.675Z,10.43
2019-04-04T18:35:52.080Z,9.93
2019-04-04T18:38:23.911Z,11.88
2019-04-04T18:40:55.174Z,10.53
2019-04-04T18:43:26.945Z,10.98
2019-04-04T18:45:58.541Z,11.12
2019-04-04T18:48:29.934Z,10.98
2019-04-04T18:50:59.277Z,10.65
2019-04-04T18:53:31.138Z,10.70
2019-04-04T18:56:02.741Z,10.15
2019-04-04T18:58:34.340Z,10.03
2019-04-04T19:01:07.032Z,9.20
2019-04-04T19:03:38.509Z,11.48
2019-04-04T19:06:10.189Z,9.45
2019-04-04T19:08:41.814Z,10.50
2019-04-04T19:11:13.264Z,10.05
2019-04-04T19:13:45.104Z,10.32
2019-04-04T19:16:18.691Z,9.78
2019-04-04T19:18:50.421Z,8.95
2019-04-04T19:21:21.965Z,9.25
2019-04-04T19:23:53.559Z,9.43
2019-04-04T19:26:25.221Z,9.85
2019-04-04T19:28:56.878Z,10.13
2019-04-04T19:31:29.652Z,9.63
2019-04-04T19:34:01.299Z,8.38
2019-04-04T19:36:33.036Z,9.30
2019-04-04T19:39:07.012Z,9.40
2019-04-04T19:41:38.831Z,9.73
2019-04-04T19:44:10.501Z,7.72
2019-04-04T19:46:41.967Z,8.78
2019-04-04T19:49:13.586Z,8.80
2019-04-04T19:51:45.260Z,9.03
2019-04-04T19:54:19.202Z,8.10
2019-04-04T19:56:50.341Z,8.40
2019-04-04T19:59:21.641Z,8.33
2019-04-04T20:01:53.210Z,9.38
2019-04-04T20:04:24.756Z,9.50
2019-04-04T20:06:56.286Z,8.53
2019-04-04T20:09:27.890Z,9.68
2019-04-04T20:11:59.530Z,10.05
2019-04-04T20:14:31.257Z,9.70
2019-04-04T20:17:02.779Z,10.35
2019-04-04T20:19:34.335Z,11.12
2019-04-04T20:22:06.034Z,11.28
2019-04-04T20:24:37.790Z,12.85
2019-04-04T20:27:09.288Z,12.23
2019-04-04T20:29:40.945Z,12.80
2019-04-04T20:32:12.460Z,11.93
2019-04-04T20:34:44.057Z,10.85
2019-04-04T20:37:15.647Z,10.53
2019-04-04T20:39:47.039Z,10.30
2019-04-04T20:42:18.367Z,9.65
2019-04-04T20:44:49.759Z,8.83
2019-04-04T20:47:21.278Z,9.08
2019-04-04T20:49:52.626Z,9.75
2019-04-04T20:52:23.914Z,8.43
2019-04-04T20:54:55.138Z,10.35
2019-04-04T20:57:26.761Z,8.93
2019-04-04T20:59:59.507Z,8.90
2019-04-04T21:02:30.855Z,9.65
2019-04-04T21:05:02.122Z,9.13
2019-04-04T21:07:33.508Z,9.13
2019-04-04T21:10:05.155Z,8.18
2019-04-04T21:12:36.490Z,8.10
2019-04-04T21:15:08.562Z,8.78
2019-04-04T21:17:40.773Z,8.20
2019-04-04T21:20:12.263Z,8.33
2019-04-04T21:22:43.935Z,8.28
2019-04-04T21:25:15.557Z,7.47
2019-04-04T21:27:46.919Z,7.62
2019-04-04T21:30:18.551Z,7.42
2019-04-04T21:32:50.194Z,7.97
2019-04-04T21:35:21.725Z,7.55
2019-04-04T21:37:52.927Z,7.65
2019-04-04T21:40:24.407Z,8.18
2019-04-04T21:42:55.765Z,7.35
2019-04-04T21:45:27.309Z,7.12
2019-04-04T21:47:58.782Z,7.45
2019-04-04T21:50:30.431Z,7.50
2019-04-04T21:53:01.737Z,7.35
2019-04-04T21:55:32.977Z,8.00
2019-04-04T21:58:04.290Z,7.25
2019-04-04T22:00:43.732Z,7.60
2019-04-04T22:03:15.682Z,7.62
2019-04-04T22:05:47.397Z,7.28
2019-04-04T22:08:19.094Z,7.72
2019-04-04T22:10:50.816Z,7.58
2019-04-04T22:13:22.587Z,7.22
2019-04-04T22:15:54.214Z,9.20
2019-04-04T22:18:25.611Z,6.90
2019-04-04T22:20:56.889Z,7.20
2019-04-04T22:23:28.410Z,6.67
2019-04-04T22:25:59.772Z,7.30
2019-04-04T22:28:31.451Z,7.42
2019-04-04T22:31:02.912Z,7.92
2019-04-04T22:33:34.288Z,7.65
2019-04-04T22:36:05.722Z,7.62
2019-04-04T22:38:37.301Z,6.97
2019-04-04T22:41:08.927Z,6.95
2019-04-04T22:43:40.252Z,7.40
2019-04-04T22:46:11.718Z,7.35
2019-04-04T22:48:43.239Z,7.22
2019-04-04T22:51:14.992Z,7.85
2019-04-04T22:53:46.680Z,7.62
2019-04-04T22:56:18.090Z,7.22
2019-04-04T22:58:49.499Z,7.58
2019-04-04T23:01:20.765Z,8.30
2019-04-04T23:03:52.328Z,8.28
2019-04-04T23:06:23.702Z,8.53
2019-04-04T23:08:55.102Z,8.23
2019-04-04T23:11:26.509Z,8.00
2019-04-04T23:13:57.923Z,8.48
2019-04-04T23:16:29.176Z,8.30
2019-04-04T23:19:00.872Z,8.40
2019-04-04T23:21:32.492Z,8.98
2019-04-04T23:24:04.111Z,8.85
2019-04-04T23:26:35.616Z,9.50
2019-04-04T23:29:07.230Z,8.30
2019-04-04T23:31:39.135Z,7.75
2019-04-04T23:34:10.871Z,8.50
2019-04-04T23:36:42.527Z,6.20
2019-04-04T23:39:14.016Z,7.75
2019-04-04T23:41:45.479Z,7.92
2019-04-04T23:44:16.856Z,8.38
2019-04-04T23:46:49.294Z,8.85
2019-04-04T23:49:20.650Z,8.28
2019-04-04T23:51:53.112Z,7.53
2019-04-04T23:54:24.594Z,8.55
2019-04-04T23:56:56.154Z,8.75
2019-04-04T23:59:27.709Z,7.08
